createdAt,value
2022-12-23T00:01:35.155Z,100199.97
2022-12-23T00:04:03.218Z,100206.16
2022-12-23T00:06:31.401Z,100203.63
2022-12-23T00:08:59.565Z,100210.66
2022-12-23T00:11:28.697Z,100215.16
2022-12-23T00:14:20.379Z,100217.00
2022-12-23T00:16:54.217Z,100214.31
2022-12-23T00:19:22.202Z,100216.13
2022-12-23T00:21:50.163Z,100216.13
2022-12-23T00:24:18.183Z,100211.72
2022-12-23T00:26:46.239Z,100220.59
2022-12-23T00:29:14.319Z,100214.41
2022-12-23T00:31:42.366Z,100222.44
2022-12-23T00:34:12.358Z,100220.72
2022-12-23T00:36:40.918Z,100239.31
2022-12-23T00:39:29.730Z,100238.47
2022-12-23T00:42:15.034Z,100241.16
2022-12-23T00:44:43.085Z,100240.41
2022-12-23T00:47:31.072Z,100234.94
2022-12-23T00:49:59.579Z,100242.13
2022-12-23T00:52:28.214Z,100242.13
2022-12-23T00:54:56.289Z,100240.41
2022-12-23T00:57:24.299Z,100243.94
2022-12-23T00:59:52.261Z,100243.09
2022-12-23T01:02:52.323Z,100245.00
2022-12-23T01:05:39.779Z,100252.94
2022-12-23T01:08:10.818Z,100251.13
2022-12-23T01:10:40.282Z,100271.66
2022-12-23T01:13:08.515Z,100262.78
2022-12-23T01:15:36.503Z,100273.47
2022-12-23T01:18:04.553Z,100274.41
2022-12-23T01:20:34.014Z,100269.91
2022-12-23T01:23:02.214Z,100276.16
2022-12-23T01:25:31.367Z,100270.03
2022-12-23T01:27:59.425Z,100273.47
2022-12-23T01:30:30.400Z,100278.81
2022-12-23T01:32:58.810Z,100278.06
2022-12-23T01:35:26.847Z,100279.75
2022-12-23T01:37:56.239Z,100289.59
2022-12-23T01:40:24.248Z,100277.22
2022-12-23T01:42:51.360Z,100285.13
2022-12-23T01:45:25.893Z,100288.75
2022-12-23T01:47:58.608Z,100299.44
2022-12-23T01:50:31.341Z,100296.78
2022-12-23T01:53:08.525Z,100298.59
2022-12-23T01:55:42.515Z,100303.09
2022-12-23T01:58:14.620Z,100309.31
2022-12-23T02:01:01.293Z,100305.84
2022-12-23T02:03:45.228Z,100309.41
2022-12-23T02:06:35.952Z,100310.25
2022-12-23T02:09:20.796Z,100312.94
2022-12-23T02:12:30.843Z,100318.28
2022-12-23T02:15:44.642Z,100321.03
2022-12-23T02:18:33.663Z,100324.56
2022-12-23T02:21:28.079Z,100330.91
2022-12-23T02:24:49.671Z,100337.09
2022-12-23T02:27:24.918Z,100349.59
2022-12-23T02:30:09.236Z,100353.25
2022-12-23T02:32:49.783Z,100356.78
2022-12-23T02:35:27.101Z,100354.97
2022-12-23T02:38:02.166Z,100361.28
2022-12-23T02:40:39.812Z,100366.63
2022-12-23T02:43:15.611Z,100364.03
2022-12-23T02:45:50.299Z,100375.63
2022-12-23T02:48:25.213Z,100373.88
2022-12-23T02:50:55.768Z,100381.91
2022-12-23T02:53:30.438Z,100380.97
2022-12-23T02:56:00.434Z,100374.00
2022-12-23T02:58:33.187Z,100383.72
2022-12-23T03:01:03.395Z,100394.41
2022-12-23T03:03:33.647Z,100396.22
2022-12-23T03:06:03.487Z,100397.94
2022-12-23T03:08:35.741Z,100407.78
2022-12-23T03:11:05.014Z,100415.81
2022-12-23T03:13:49.817Z,100411.31
2022-12-23T03:16:24.779Z,100411.44
2022-12-23T03:19:07.552Z,100420.31
2022-12-23T03:21:41.460Z,100414.94
2022-12-23T03:24:22.335Z,100409.72
2022-12-23T03:26:58.739Z,100408.75
2022-12-23T03:29:37.272Z,100396.34
2022-12-23T03:32:06.547Z,100402.56
2022-12-23T03:34:40.599Z,100407.03
2022-12-23T03:37:12.096Z,100407.97
2022-12-23T03:39:46.667Z,100403.53
2022-12-23T03:42:23.685Z,100403.53
2022-12-23T03:45:27.929Z,100394.63
2022-12-23T03:47:45.683Z,100401.69
2022-12-23T03:50:17.800Z,100402.63
2022-12-23T03:52:51.353Z,100400.84
2022-12-23T03:55:23.226Z,100404.47
2022-12-23T03:58:13.305Z,100401.78
2022-12-23T04:00:48.716Z,100401.03
2022-12-23T04:03:23.098Z,100399.22
2022-12-23T04:05:56.786Z,100399.22
2022-12-23T04:08:29.610Z,100402.75
2022-12-23T04:10:58.305Z,100410.78
2022-12-23T04:13:27.682Z,100422.44
2022-12-23T04:15:56.092Z,100423.28
2022-12-23T04:18:24.119Z,100424.25
2022-12-23T04:20:53.492Z,100423.41
2022-12-23T04:23:21.475Z,100428.81
2022-12-23T04:25:49.602Z,100443.91
2022-12-23T04:28:18.279Z,100438.56
2022-12-23T04:30:46.304Z,100441.34
2022-12-23T04:33:14.558Z,100449.38
2022-12-23T04:35:42.598Z,100444.88
2022-12-23T04:38:11.997Z,100452.88
2022-12-23T04:40:39.990Z,100450.22
2022-12-23T04:43:07.971Z,100459.09
2022-12-23T04:45:35.935Z,100460.06
2022-12-23T04:48:03.927Z,100458.25
2022-12-23T04:50:31.942Z,100451.06
2022-12-23T04:53:02.249Z,100446.69
2022-12-23T04:55:31.672Z,100443.25
2022-12-23T04:57:59.694Z,100451.19
2022-12-23T05:00:32.733Z,100453.00
2022-12-23T05:03:05.509Z,100453.84
2022-12-23T05:05:33.607Z,100444.97
2022-12-23T05:08:04.662Z,100447.66
2022-12-23T05:10:34.139Z,100440.56
2022-12-23T05:13:02.189Z,100435.22
2022-12-23T05:15:33.053Z,100445.06
2022-12-23T05:18:01.133Z,100437.91
2022-12-23T05:20:29.083Z,100443.25
2022-12-23T05:22:57.250Z,100445.06
2022-12-23T05:25:25.167Z,100453.09
2022-12-23T05:27:54.570Z,100466.44
2022-12-23T05:30:22.545Z,100471.81
2022-12-23T05:32:54.344Z,100468.28
2022-12-23T05:35:23.228Z,100468.28
2022-12-23T05:37:51.212Z,100482.50
2022-12-23T05:40:23.549Z,100474.47
2022-12-23T05:42:52.464Z,100478.97
2022-12-23T05:45:24.338Z,100485.16
2022-12-23T05:47:52.268Z,100494.16
2022-12-23T05:50:20.268Z,100499.50
2022-12-23T05:52:48.306Z,100496.81
2022-12-23T05:55:16.436Z,100498.66
2022-12-23T05:57:44.754Z,100492.34
2022-12-23T06:00:14.054Z,100493.19
2022-12-23T06:02:47.195Z,100485.28
2022-12-23T06:05:18.092Z,100492.34
2022-12-23T06:07:46.225Z,100487.84
2022-12-23T06:10:14.159Z,100487.84
2022-12-23T06:12:42.228Z,100489.66
2022-12-23T06:15:10.952Z,100496.72
2022-12-23T06:17:38.981Z,100493.97
2022-12-23T06:20:18.103Z,100485.09
2022-12-23T06:22:48.167Z,100486.78
2022-12-23T06:25:16.501Z,100484.97
2022-12-23T06:27:44.511Z,100488.50
2022-12-23T06:30:13.043Z,100483.28
2022-12-23T06:32:41.032Z,100484.00
2022-12-23T06:35:11.236Z,100485.75
2022-12-23T06:37:39.244Z,100479.44
2022-12-23T06:40:08.313Z,100474.94
2022-12-23T06:42:36.349Z,100467.78
2022-12-23T06:45:05.280Z,100466.81
2022-12-23T06:47:33.272Z,100476.56
2022-12-23T06:50:01.237Z,100481.91
2022-12-23T06:52:30.618Z,100485.44
2022-12-23T06:54:58.565Z,100488.97
2022-12-23T06:57:26.607Z,100489.81
2022-12-23T06:59:54.540Z,100501.38
2022-12-23T07:02:22.639Z,100504.03
2022-12-23T07:04:50.739Z,100510.25
2022-12-23T07:07:18.706Z,100515.50
2022-12-23T07:09:48.068Z,100519.03
2022-12-23T07:12:16.175Z,100524.28
2022-12-23T07:14:44.156Z,100530.47
2022-12-23T07:17:12.198Z,100532.22
2022-12-23T07:19:41.668Z,100546.44
2022-12-23T07:22:10.827Z,100549.00
2022-12-23T07:24:38.810Z,100556.19
2022-12-23T07:27:08.180Z,100557.03
2022-12-23T07:29:36.144Z,100548.03
2022-12-23T07:32:04.666Z,100540.91
2022-12-23T07:34:32.870Z,100545.28
2022-12-23T07:37:03.313Z,100555.88
2022-12-23T07:39:31.348Z,100552.25
2022-12-23T07:42:25.125Z,100550.53
2022-12-23T07:44:48.572Z,100551.31
2022-12-23T07:47:16.955Z,100552.03
2022-12-23T07:49:44.909Z,100547.59
2022-12-23T07:52:16.303Z,100532.41
2022-12-23T07:54:44.672Z,100541.31
2022-12-23T07:57:12.627Z,100543.00
2022-12-23T07:59:40.663Z,100531.34
2022-12-23T08:02:11.315Z,100532.19
2022-12-23T08:04:45.597Z,100525.91
2022-12-23T08:07:14.218Z,100527.63
2022-12-23T08:09:42.519Z,100522.28
2022-12-23T08:12:10.498Z,100540.88
2022-12-23T08:14:38.536Z,100542.59
2022-12-23T08:17:06.577Z,100532.78
2022-12-23T08:19:36.015Z,100525.59
2022-12-23T08:22:04.541Z,100525.59
2022-12-23T08:24:32.508Z,100531.69
2022-12-23T08:27:02.811Z,100534.28
2022-12-23T08:29:36.049Z,100532.47
2022-12-23T08:32:07.918Z,100524.44
2022-12-23T08:34:37.611Z,100521.66
2022-12-23T08:37:05.632Z,100529.59
2022-12-23T08:39:33.787Z,100531.31
2022-12-23T08:42:01.992Z,100519.63
2022-12-23T08:44:31.071Z,100506.25
2022-12-23T08:47:01.337Z,100501.69
2022-12-23T08:49:29.409Z,100500.72
2022-12-23T08:51:58.808Z,100501.44
2022-12-23T08:54:28.258Z,100492.56
2022-12-23T08:56:56.245Z,100484.47
2022-12-23T08:59:26.795Z,100491.50
2022-12-23T09:01:54.975Z,100487.97
2022-12-23T09:04:23.098Z,100486.16
2022-12-23T09:06:51.055Z,100478.88
2022-12-23T09:09:20.477Z,100475.34
2022-12-23T09:11:48.480Z,100476.97
2022-12-23T09:14:16.555Z,100476.97
2022-12-23T09:16:44.540Z,100473.31
2022-12-23T09:19:12.562Z,100474.19
2022-12-23T09:21:40.571Z,100480.41
2022-12-23T09:24:08.635Z,100473.13
2022-12-23T09:26:38.029Z,100470.44
2022-12-23T09:29:06.078Z,100466.81
2022-12-23T09:31:37.271Z,100464.97
2022-12-23T09:34:06.726Z,100460.50
2022-12-23T09:36:34.873Z,100462.22
2022-12-23T09:39:03.200Z,100462.22
2022-12-23T09:41:47.561Z,100464.78
2022-12-23T09:44:36.688Z,100464.69
2022-12-23T09:47:07.243Z,100468.22
2022-12-23T09:49:35.940Z,100464.56
2022-12-23T09:52:06.794Z,100453.00
2022-12-23T09:54:42.857Z,100458.16
2022-12-23T09:57:21.894Z,100439.44
2022-12-23T10:00:03.011Z,100437.59
2022-12-23T10:02:44.268Z,100449.16
2022-12-23T10:05:26.077Z,100429.47
2022-12-23T10:07:59.245Z,100429.47
2022-12-23T10:10:34.623Z,100427.63
2022-12-23T10:13:07.802Z,100418.75
2022-12-23T10:15:39.997Z,100421.34
2022-12-23T10:18:13.177Z,100403.53
2022-12-23T10:20:48.419Z,100394.56
2022-12-23T10:23:18.989Z,100387.50
2022-12-23T10:25:51.815Z,100384.81
2022-12-23T10:28:21.617Z,100371.44
2022-12-23T10:31:39.360Z,100368.88
2022-12-23T10:33:57.540Z,100371.53
2022-12-23T10:36:35.556Z,100380.44
2022-12-23T10:39:13.877Z,100368.03
2022-12-23T10:41:49.372Z,100368.88
2022-12-23T10:44:49.676Z,100367.03
2022-12-23T10:47:26.416Z,100358.16
2022-12-23T10:50:06.097Z,100356.47
2022-12-23T10:52:38.617Z,100351.09
2022-12-23T10:55:07.378Z,100345.97
2022-12-23T10:57:35.435Z,100351.09
2022-12-23T11:00:17.782Z,100345.84
2022-12-23T11:02:59.348Z,100339.63
2022-12-23T11:05:31.419Z,100336.97
2022-12-23T11:08:00.092Z,100339.75
2022-12-23T11:10:33.317Z,100325.53
2022-12-23T11:13:01.895Z,100328.06
2022-12-23T11:15:35.857Z,100330.88
2022-12-23T11:18:08.030Z,100333.56
2022-12-23T11:20:37.631Z,100328.19
2022-12-23T11:23:07.834Z,100313.94
2022-12-23T11:25:38.629Z,100314.91
2022-12-23T11:28:13.597Z,100312.13
2022-12-23T11:30:56.486Z,100309.47
2022-12-23T11:33:27.416Z,100309.56
2022-12-23T11:36:04.412Z,100310.41
2022-12-23T11:38:33.215Z,100308.69
2022-12-23T11:41:01.782Z,100305.06
2022-12-23T11:43:30.385Z,100303.34
2022-12-23T11:46:26.279Z,100298.00
2022-12-23T11:49:07.254Z,100303.34
2022-12-23T11:51:35.216Z,100303.34
2022-12-23T11:54:04.077Z,100281.94
2022-12-23T11:56:37.863Z,100273.19
2022-12-23T11:59:09.227Z,100269.53
2022-12-23T12:01:39.914Z,100266.94
2022-12-23T12:04:10.306Z,100267.84
2022-12-23T12:06:49.622Z,100248.22
2022-12-23T12:09:20.109Z,100231.31
2022-12-23T12:11:50.463Z,100228.63
2022-12-23T12:14:24.116Z,100225.09
2022-12-23T12:17:01.861Z,100217.06
2022-12-23T12:19:33.059Z,100198.47
2022-12-23T12:22:07.180Z,100203.81
2022-12-23T12:24:42.668Z,100191.41
2022-12-23T12:27:13.042Z,100181.66
2022-12-23T12:29:45.794Z,100165.72
2022-12-23T12:32:20.594Z,100171.81
2022-12-23T12:34:55.992Z,100165.59
2022-12-23T12:37:34.301Z,100155.88
2022-12-23T12:40:08.570Z,100154.03
2022-12-23T12:42:41.314Z,100160.25
2022-12-23T12:45:18.116Z,100156.00
2022-12-23T12:48:02.300Z,100155.03
2022-12-23T12:50:41.632Z,100144.41
2022-12-23T12:53:15.637Z,100144.41
2022-12-23T12:55:47.907Z,100145.38
2022-12-23T12:58:20.680Z,100128.47
2022-12-23T13:00:59.302Z,100127.50
2022-12-23T13:03:46.112Z,100119.47
2022-12-23T13:06:23.123Z,100109.63
2022-12-23T13:09:03.367Z,100091.88
2022-12-23T13:11:45.200Z,100084.69
2022-12-23T13:14:25.868Z,100077.53
2022-12-23T13:17:03.609Z,100067.78
2022-12-23T13:19:43.519Z,100064.25
2022-12-23T13:22:16.623Z,100066.81
2022-12-23T13:24:57.615Z,100060.63
2022-12-23T13:27:32.787Z,100049.91
2022-12-23T13:30:08.024Z,100045.41
2022-12-23T13:33:02.215Z,100038.13
2022-12-23T13:35:41.855Z,100033.63
2022-12-23T13:38:26.795Z,100030.13
2022-12-23T13:41:02.696Z,100022.94
2022-12-23T13:43:41.797Z,100014.91
2022-12-23T13:46:16.132Z,100007.72
2022-12-23T13:48:53.175Z,100007.63
2022-12-23T13:51:32.137Z,100001.44
2022-12-23T13:54:07.087Z,100000.47
2022-12-23T13:56:43.244Z,99996.81
2022-12-23T13:59:12.970Z,99998.50
2022-12-23T14:01:47.472Z,99990.47
2022-12-23T14:04:35.811Z,100000.22
2022-12-23T14:07:20.128Z,99986.72
2022-12-23T14:09:53.222Z,99991.09
2022-12-23T14:12:28.011Z,99997.31
2022-12-23T14:15:25.582Z,100012.41
2022-12-23T14:18:05.009Z,100012.41
2022-12-23T14:20:48.399Z,100017.63
2022-12-23T14:23:33.494Z,100018.50
2022-12-23T14:26:38.141Z,100001.44
2022-12-23T14:29:21.844Z,100003.06
2022-12-23T14:31:57.509Z,99980.94
2022-12-23T14:34:31.764Z,99986.16
2022-12-23T14:37:32.690Z,99978.84
2022-12-23T14:40:40.595Z,99960.97
2022-12-23T14:43:27.499Z,99961.84
2022-12-23T14:45:56.839Z,99952.81
2022-12-23T14:49:38.232Z,99941.16
2022-12-23T14:52:36.798Z,99940.16
2022-12-23T14:55:49.985Z,99939.22
2022-12-23T14:58:59.348Z,99926.69
2022-12-23T15:01:40.854Z,99923.03
2022-12-23T15:04:18.967Z,99930.97
2022-12-23T15:06:49.367Z,99927.31
2022-12-23T15:09:25.577Z,99915.75
2022-12-23T15:11:55.671Z,99918.28
2022-12-23T15:14:32.998Z,99923.66
2022-12-23T15:17:16.496Z,99913.78
2022-12-23T15:19:47.097Z,99911.88
2022-12-23T15:22:23.772Z,99943.00
2022-12-23T15:24:55.680Z,99934.84
2022-12-23T15:27:28.720Z,99938.38
2022-12-23T15:29:59.399Z,99961.50
2022-12-23T15:32:28.976Z,99980.13
2022-12-23T15:35:02.209Z,99957.00
2022-12-23T15:37:32.395Z,99939.97
2022-12-23T15:40:09.919Z,99946.06
2022-12-23T15:42:39.830Z,99942.41
2022-12-23T15:45:30.851Z,99949.59
2022-12-23T15:47:58.920Z,99964.69
2022-12-23T15:50:28.406Z,99958.34
2022-12-23T15:53:05.532Z,99945.81
2022-12-23T15:55:35.738Z,99952.03
2022-12-23T15:58:05.404Z,99961.78
2022-12-23T16:00:40.671Z,99950.22
2022-12-23T16:03:24.769Z,99938.53
2022-12-23T16:05:53.066Z,99937.53
2022-12-23T16:08:29.888Z,99931.34
2022-12-23T16:11:06.531Z,99923.31
2022-12-23T16:13:35.148Z,99935.72
2022-12-23T16:16:20.905Z,99927.81
2022-12-23T16:18:49.009Z,99921.38
2022-12-23T16:21:17.041Z,99932.94
2022-12-23T16:23:51.667Z,99931.94
2022-12-23T16:26:21.210Z,99939.84
2022-12-23T16:28:52.739Z,99939.84
2022-12-23T16:31:22.922Z,99942.53
2022-12-23T16:33:52.643Z,99938.91
2022-12-23T16:36:32.679Z,99937.06
2022-12-23T16:39:06.812Z,99939.75
2022-12-23T16:41:35.579Z,99946.81
2022-12-23T16:44:03.993Z,99942.31
2022-12-23T16:46:38.280Z,99945.81
2022-12-23T16:49:11.063Z,99944.88
2022-12-23T16:51:40.728Z,99947.56
2022-12-23T16:54:15.530Z,99943.91
2022-12-23T16:56:43.551Z,99959.97
2022-12-23T16:59:11.469Z,99965.31
2022-12-23T17:01:43.965Z,99975.06
2022-12-23T17:04:12.492Z,99974.22
2022-12-23T17:06:40.839Z,99975.06
2022-12-23T17:09:11.169Z,99980.31
2022-12-23T17:11:42.712Z,99986.50
2022-12-23T17:14:17.166Z,99986.50
2022-12-23T17:16:47.612Z,99985.56
2022-12-23T17:19:16.787Z,99987.25
2022-12-23T17:21:48.397Z,99985.56
2022-12-23T17:24:23.476Z,99979.22
2022-12-23T17:26:52.263Z,99988.97
2022-12-23T17:29:20.835Z,99987.16
2022-12-23T17:31:51.613Z,99985.34
2022-12-23T17:34:21.800Z,99994.22
2022-12-23T17:36:51.112Z,99986.19
2022-12-23T17:39:19.892Z,99991.41
2022-12-23T17:41:48.276Z,99992.25
2022-12-23T17:44:18.334Z,99982.41
2022-12-23T17:46:47.364Z,99987.75
2022-12-23T17:49:16.810Z,99985.06
2022-12-23T17:51:44.939Z,99986.81
2022-12-23T17:54:22.659Z,99984.84
2022-12-23T17:56:53.673Z,99996.41
2022-12-23T17:59:21.899Z,99984.84
2022-12-23T18:01:50.232Z,99994.59
2022-12-23T18:04:22.169Z,99994.34
2022-12-23T18:06:53.112Z,100004.22
2022-12-23T18:09:21.348Z,100000.69
2022-12-23T18:11:49.506Z,100002.38
2022-12-23T18:14:24.765Z,100010.31
2022-12-23T18:16:52.803Z,100011.16
2022-12-23T18:19:25.438Z,100012.00
2022-12-23T18:21:53.990Z,100015.53
2022-12-23T18:24:21.936Z,100013.72
2022-12-23T18:26:49.948Z,100013.59
2022-12-23T18:29:18.583Z,100017.13
2022-12-23T18:31:51.362Z,100019.69
2022-12-23T18:34:20.764Z,100016.16
2022-12-23T18:36:51.713Z,100027.63
2022-12-23T18:39:23.230Z,100028.47
2022-12-23T18:41:51.288Z,100030.16
2022-12-23T18:44:20.590Z,100025.66
2022-12-23T18:46:49.030Z,100034.44
2022-12-23T18:49:17.202Z,100027.34
2022-12-23T18:51:45.431Z,100029.09
2022-12-23T18:54:16.967Z,100043.34
2022-12-23T18:56:45.284Z,100049.53
2022-12-23T18:59:22.549Z,100054.75
2022-12-23T19:01:52.575Z,100047.72
2022-12-23T19:04:20.656Z,100051.09
2022-12-23T19:06:48.740Z,100056.47
2022-12-23T19:09:20.847Z,100053.69
2022-12-23T19:11:50.760Z,100057.22
2022-12-23T19:14:18.846Z,100063.41
2022-12-23T19:16:51.577Z,100056.22
2022-12-23T19:19:20.333Z,100056.13
2022-12-23T19:21:48.474Z,100047.25
2022-12-23T19:24:16.607Z,100061.34
2022-12-23T19:26:45.964Z,100066.72
2022-12-23T19:29:13.974Z,100058.69
2022-12-23T19:31:44.922Z,100064.78
2022-12-23T19:34:16.378Z,100069.16
2022-12-23T19:36:44.703Z,100065.63
2022-12-23T19:39:16.317Z,100079.88
2022-12-23T19:41:46.463Z,100078.06
2022-12-23T19:44:14.544Z,100086.94
2022-12-23T19:46:45.139Z,100089.63
2022-12-23T19:49:19.515Z,100089.53
2022-12-23T19:51:48.786Z,100091.31
2022-12-23T19:54:17.146Z,100098.41
2022-12-23T19:56:47.119Z,100099.13
2022-12-23T19:59:15.054Z,100098.28
2022-12-23T20:01:43.205Z,100098.16
2022-12-23T20:04:12.436Z,100099.03
2022-12-23T20:06:42.744Z,100104.38
2022-12-23T20:09:14.371Z,100115.97
2022-12-23T20:11:44.231Z,100107.91
2022-12-23T20:14:18.071Z,100126.41
2022-12-23T20:16:48.375Z,100133.75
2022-12-23T20:19:17.033Z,100128.25
2022-12-23T20:21:46.351Z,100136.19
2022-12-23T20:24:15.194Z,100138.88
2022-12-23T20:26:43.577Z,100153.13
2022-12-23T20:29:11.652Z,100148.59
2022-12-23T20:31:41.385Z,100152.13
2022-12-23T20:34:14.535Z,100156.41
2022-12-23T20:36:42.622Z,100149.22
2022-12-23T20:39:10.708Z,100162.75
2022-12-23T20:41:38.719Z,100160.81
2022-12-23T20:44:33.767Z,100168.72
2022-12-23T20:46:56.299Z,100167.88
2022-12-23T20:49:24.378Z,100172.28
2022-12-23T20:51:54.893Z,100183.00
2022-12-23T20:54:27.882Z,100183.00
2022-12-23T20:57:00.121Z,100189.06
2022-12-23T20:59:28.136Z,100201.63
2022-12-23T21:01:59.081Z,100200.78
2022-12-23T21:04:27.467Z,100211.38
2022-12-23T21:06:55.514Z,100208.69
2022-12-23T21:09:23.492Z,100214.91
2022-12-23T21:11:51.526Z,100221.13
2022-12-23T21:14:19.760Z,100222.00
2022-12-23T21:16:47.867Z,100221.13
2022-12-23T21:19:20.482Z,100227.38
2022-12-23T21:21:49.259Z,100220.16
2022-12-23T21:24:18.062Z,100229.91
2022-12-23T21:26:56.295Z,100233.66
2022-12-23T21:29:25.564Z,100246.13
2022-12-23T21:31:55.172Z,100239.03
2022-12-23T21:34:25.055Z,100243.44
2022-12-23T21:36:53.271Z,100255.13
2022-12-23T21:39:21.268Z,100257.78
2022-12-23T21:41:51.403Z,100268.53
2022-12-23T21:44:19.642Z,100261.47
2022-12-23T21:46:47.749Z,100269.50
2022-12-23T21:49:15.904Z,100284.72
2022-12-23T21:51:45.304Z,100280.22
2022-12-23T21:54:13.613Z,100291.94
2022-12-23T21:56:42.392Z,100287.41
2022-12-23T21:59:15.007Z,100288.25
2022-12-23T22:01:43.782Z,100285.72
2022-12-23T22:04:14.144Z,100292.78
2022-12-23T22:06:44.623Z,100292.91
2022-12-23T22:09:16.687Z,100303.63
2022-12-23T22:11:45.430Z,100295.59
2022-12-23T22:14:19.487Z,100293.84
2022-12-23T22:16:47.749Z,100306.31
2022-12-23T22:19:16.089Z,100299.22
2022-12-23T22:21:44.073Z,100311.75
2022-12-23T22:24:12.223Z,100320.66
2022-12-23T22:26:42.030Z,100318.09
2022-12-23T22:29:11.630Z,100320.91
2022-12-23T22:31:42.981Z,100326.16
2022-12-23T22:34:14.463Z,100328.81
2022-12-23T22:36:42.600Z,100335.03
2022-12-23T22:39:19.467Z,100337.94
2022-12-23T22:41:50.647Z,100344.06
2022-12-23T22:44:19.299Z,100345.13
2022-12-23T22:46:47.746Z,100356.69
2022-12-23T22:49:16.635Z,100363.03
2022-12-23T22:51:45.639Z,100372.91
2022-12-23T22:54:14.210Z,100374.75
2022-12-23T22:56:42.240Z,100369.38
2022-12-23T22:59:19.436Z,100380.09
2022-12-23T23:01:47.578Z,100382.03
2022-12-23T23:04:15.568Z,100389.09
2022-12-23T23:06:43.718Z,100396.19
2022-12-23T23:09:15.135Z,100400.78
2022-12-23T23:11:44.294Z,100407.00
2022-12-23T23:14:14.222Z,100404.44
2022-12-23T23:16:42.211Z,100407.13
2022-12-23T23:19:12.221Z,100423.22
2022-12-23T23:21:40.343Z,100411.63
2022-12-23T23:24:09.283Z,100424.19
2022-12-23T23:26:37.270Z,100432.22
2022-12-23T23:29:05.338Z,100435.00
2022-12-23T23:31:43.559Z,100438.53
2022-12-23T23:34:12.221Z,100435.84
2022-12-23T23:36:40.625Z,100427.06
2022-12-23T23:39:09.042Z,100436.81
2022-12-23T23:41:37.127Z,100435.13
2022-12-23T23:44:05.275Z,100448.53
2022-12-23T23:46:35.449Z,100450.34
2022-12-23T23:49:04.009Z,100446.81
2022-12-23T23:51:31.943Z,100452.16
2022-12-23T23:53:59.909Z,100457.53
2022-12-23T23:56:32.346Z,100465.56
2022-12-23T23:59:04.044Z,100474.56
